createdAt,value
2023-03-01T00:00:42.825Z,47.30
2023-03-01T00:01:42.787Z,49.00
2023-03-01T00:02:42.862Z,53.30
2023-03-01T00:03:42.783Z,52.60
2023-03-01T00:04:42.740Z,59.50
2023-03-01T00:05:42.751Z,56.80
2023-03-01T00:06:42.736Z,58.70
2023-03-01T00:07:42.702Z,57.00
2023-03-01T00:08:42.689Z,56.80
2023-03-01T00:09:42.681Z,55.50
2023-03-01T00:10:42.747Z,57.20
2023-03-01T00:11:42.697Z,59.50
2023-03-01T00:12:42.665Z,56.70
2023-03-01T00:13:42.644Z,55.90
2023-03-01T00:14:42.607Z,52.40
2023-03-01T00:15:42.596Z,54.20
2023-03-01T00:16:42.648Z,55.00
2023-03-01T00:17:42.611Z,53.70
2023-03-01T00:18:42.580Z,55.20
2023-03-01T00:19:42.541Z,54.20
2023-03-01T00:20:42.528Z,56.60
2023-03-01T00:21:42.522Z,59.30
2023-03-01T00:22:42.498Z,57.80
2023-03-01T00:23:42.510Z,57.60
2023-03-01T00:24:42.503Z,57.90
2023-03-01T00:25:42.463Z,55.10
2023-03-01T00:26:42.457Z,53.70
2023-03-01T00:27:42.466Z,53.40
2023-03-01T00:28:42.422Z,49.70
2023-03-01T00:29:42.418Z,50.70
2023-03-01T00:30:42.490Z,49.20
2023-03-01T00:31:42.387Z,51.50
2023-03-01T00:32:42.398Z,50.80
2023-03-01T00:33:42.362Z,50.50
2023-03-01T00:34:42.351Z,52.70
2023-03-01T00:35:42.399Z,50.60
2023-03-01T00:36:42.357Z,49.60
2023-03-01T00:37:42.348Z,48.50
2023-03-01T00:38:42.299Z,48.10
2023-03-01T00:39:42.280Z,46.90
2023-03-01T00:40:42.277Z,47.50
2023-03-01T00:41:42.332Z,46.10
2023-03-01T00:42:42.252Z,46.30
2023-03-01T00:43:42.241Z,45.50
2023-03-01T00:44:42.231Z,46.10
2023-03-01T00:45:42.216Z,47.60
2023-03-01T00:46:42.241Z,48.90
2023-03-01T00:47:42.180Z,49.80
2023-03-01T00:48:42.163Z,50.80
2023-03-01T00:49:42.178Z,50.60
2023-03-01T00:50:42.146Z,52.00
2023-03-01T00:51:42.132Z,53.00
2023-03-01T00:52:42.168Z,51.40
2023-03-01T00:53:42.107Z,50.50
2023-03-01T00:54:42.122Z,52.60
2023-03-01T00:55:42.080Z,53.80
2023-03-01T00:56:42.058Z,52.60
2023-03-01T00:57:42.041Z,52.10
2023-03-01T00:58:42.071Z,55.70
2023-03-01T00:59:42.016Z,51.60
2023-03-01T01:00:42.024Z,50.40
2023-03-01T01:01:48.943Z,54.70
2023-03-01T01:02:42.050Z,55.30
2023-03-01T01:03:42.768Z,54.20
2023-03-01T01:04:41.984Z,52.60
2023-03-01T01:05:42.082Z,51.80
2023-03-01T01:06:41.931Z,55.30
2023-03-01T01:07:41.945Z,55.00
2023-03-01T01:08:41.927Z,50.60
2023-03-01T01:09:41.927Z,51.40
2023-03-01T01:10:41.884Z,52.00
2023-03-01T01:11:41.915Z,50.90
2023-03-01T01:12:41.858Z,50.30
2023-03-01T01:13:41.868Z,50.00
2023-03-01T01:14:41.845Z,49.40
2023-03-01T01:15:41.922Z,52.70
2023-03-01T01:16:41.827Z,52.30
2023-03-01T01:17:41.798Z,51.50
2023-03-01T01:18:41.775Z,49.90
2023-03-01T01:19:41.785Z,49.40
2023-03-01T01:20:41.764Z,47.70
2023-03-01T01:21:41.750Z,48.20
2023-03-01T01:22:41.778Z,53.90
2023-03-01T01:23:41.731Z,50.20
2023-03-01T01:24:41.694Z,49.20
2023-03-01T01:25:41.712Z,52.00
2023-03-01T01:26:41.700Z,49.10
2023-03-01T01:27:41.662Z,50.10
2023-03-01T01:28:41.654Z,49.80
2023-03-01T01:29:41.663Z,50.10
2023-03-01T01:30:41.635Z,48.80
2023-03-01T01:31:41.647Z,51.80
2023-03-01T01:32:41.644Z,52.20
2023-03-01T01:33:41.570Z,52.10
2023-03-01T01:34:41.640Z,51.60
2023-03-01T01:35:41.737Z,51.90
2023-03-01T01:36:41.528Z,52.00
2023-03-01T01:37:41.572Z,52.40
2023-03-01T01:38:41.506Z,50.90
2023-03-01T01:39:41.506Z,51.20
2023-03-01T01:40:41.532Z,45.50
2023-03-01T01:41:41.531Z,47.30
2023-03-01T01:42:41.487Z,48.50
2023-03-01T01:43:41.457Z,47.70
2023-03-01T01:44:41.444Z,49.60
2023-03-01T01:45:41.432Z,51.30
2023-03-01T01:46:41.503Z,50.20
2023-03-01T01:47:41.393Z,52.90
2023-03-01T01:48:41.429Z,51.00
2023-03-01T01:49:41.386Z,52.50
2023-03-01T01:50:41.349Z,51.50
2023-03-01T01:51:41.354Z,52.20
2023-03-01T01:52:41.371Z,54.30
2023-03-01T01:53:41.323Z,51.80
2023-03-01T01:54:41.317Z,49.80
2023-03-01T01:55:41.300Z,49.70
2023-03-01T01:56:41.280Z,47.60
2023-03-01T01:57:41.274Z,48.10
2023-03-01T01:58:41.325Z,52.60
2023-03-01T01:59:41.273Z,50.30
2023-03-01T02:00:41.240Z,53.90
2023-03-01T02:01:41.207Z,53.40
2023-03-01T02:02:41.369Z,51.00
2023-03-01T02:03:41.369Z,50.10
2023-03-01T02:04:41.170Z,49.90
2023-03-01T02:05:41.163Z,50.00
2023-03-01T02:06:41.161Z,51.90
2023-03-01T02:07:41.308Z,51.70
2023-03-01T02:08:41.138Z,52.30
2023-03-01T02:09:41.101Z,56.30
2023-03-01T02:10:41.164Z,48.20
2023-03-01T02:11:41.095Z,49.20
2023-03-01T02:12:41.060Z,51.60
2023-03-01T02:13:41.074Z,51.30
2023-03-01T02:14:41.077Z,50.20
2023-03-01T02:15:41.015Z,50.40
2023-03-01T02:16:41.015Z,49.80
2023-03-01T02:17:41.073Z,50.50
2023-03-01T02:18:41.003Z,50.10
2023-03-01T02:19:40.998Z,50.70
2023-03-01T02:20:40.978Z,50.20
2023-03-01T02:21:41.030Z,50.10
2023-03-01T02:22:40.934Z,50.50
2023-03-01T02:23:40.953Z,49.90
2023-03-01T02:24:41.046Z,52.80
2023-03-01T02:25:40.942Z,53.80
2023-03-01T02:26:40.887Z,54.40
2023-03-01T02:27:40.900Z,56.30
2023-03-01T02:28:40.876Z,57.70
2023-03-01T02:29:41.523Z,59.70
2023-03-01T02:30:40.871Z,58.20
2023-03-01T02:31:40.975Z,58.30
2023-03-01T02:32:40.788Z,53.20
2023-03-01T02:33:40.806Z,54.90
2023-03-01T02:34:40.962Z,56.60
2023-03-01T02:35:40.835Z,51.70
2023-03-01T02:36:40.767Z,52.30
2023-03-01T02:37:40.870Z,56.40
2023-03-01T02:38:40.724Z,55.00
2023-03-01T02:39:40.722Z,55.70
2023-03-01T02:40:40.687Z,53.90
2023-03-01T02:41:40.744Z,52.80
2023-03-01T02:42:40.676Z,52.10
2023-03-01T02:43:40.678Z,52.10
2023-03-01T02:44:40.724Z,50.50
2023-03-01T02:45:40.818Z,49.80
2023-03-01T02:46:40.682Z,53.60
2023-03-01T02:47:40.634Z,52.10
2023-03-01T02:48:40.604Z,53.00
2023-03-01T02:49:40.645Z,51.80
2023-03-01T02:50:40.566Z,52.10
2023-03-01T02:51:40.564Z,52.20
2023-03-01T02:52:41.884Z,53.80
2023-03-01T02:53:40.561Z,53.30
2023-03-01T02:54:40.552Z,53.30
2023-03-01T02:55:40.487Z,56.80
2023-03-01T02:56:40.502Z,56.50
2023-03-01T02:57:40.475Z,55.90
2023-03-01T02:58:40.449Z,53.60
2023-03-01T02:59:40.689Z,51.90
2023-03-01T03:00:40.634Z,54.80
2023-03-01T03:01:40.448Z,55.30
2023-03-01T03:02:40.481Z,55.80
2023-03-01T03:03:40.429Z,52.60
2023-03-01T03:04:40.379Z,52.60
2023-03-01T03:05:40.378Z,53.40
2023-03-01T03:06:40.442Z,53.40
2023-03-01T03:07:40.335Z,54.20
2023-03-01T03:08:40.379Z,52.30
2023-03-01T03:09:40.343Z,51.00
2023-03-01T03:10:40.349Z,49.70
2023-03-01T03:11:40.317Z,49.20
2023-03-01T03:12:40.349Z,49.30
2023-03-01T03:13:40.267Z,51.20
2023-03-01T03:14:40.243Z,48.10
2023-03-01T03:15:40.269Z,48.50
2023-03-01T03:16:40.340Z,47.50
2023-03-01T03:17:40.240Z,48.30
2023-03-01T03:18:40.219Z,47.30
2023-03-01T03:19:40.218Z,48.70
2023-03-01T03:20:40.176Z,46.90
2023-03-01T03:21:40.156Z,48.10
2023-03-01T03:22:40.160Z,45.20
2023-03-01T03:23:40.156Z,47.40
2023-03-01T03:24:40.120Z,46.70
2023-03-01T03:25:40.260Z,52.20
2023-03-01T03:26:40.135Z,51.80
2023-03-01T03:27:40.078Z,50.80
2023-03-01T03:28:40.056Z,49.20
2023-03-01T03:29:40.172Z,48.80
2023-03-01T03:30:40.058Z,47.80
2023-03-01T03:31:40.154Z,51.20
2023-03-01T03:32:40.130Z,49.20
2023-03-01T03:33:40.011Z,49.70
2023-03-01T03:34:39.977Z,49.50
2023-03-01T03:35:40.005Z,48.20
2023-03-01T03:36:40.014Z,47.80
2023-03-01T03:37:39.950Z,47.00
2023-03-01T03:38:39.959Z,49.40
2023-03-01T03:39:39.953Z,51.10
2023-03-01T03:40:40.054Z,51.40
2023-03-01T03:41:39.901Z,51.30
2023-03-01T03:42:39.877Z,50.30
2023-03-01T03:43:39.935Z,52.10
2023-03-01T03:44:39.860Z,49.20
2023-03-01T03:45:39.874Z,48.70
2023-03-01T03:46:39.912Z,50.50
2023-03-01T03:47:39.820Z,51.50
2023-03-01T03:48:39.847Z,53.40
2023-03-01T03:49:39.790Z,52.30
2023-03-01T03:50:39.818Z,52.40
2023-03-01T03:51:39.765Z,54.80
2023-03-01T03:52:39.791Z,54.70
2023-03-01T03:53:39.765Z,59.90
2023-03-01T03:54:39.755Z,61.10
2023-03-01T03:55:39.718Z,60.20
2023-03-01T03:56:40.110Z,62.30
2023-03-01T03:57:39.759Z,64.30
2023-03-01T03:58:39.680Z,61.70
2023-03-01T03:59:39.687Z,67.40
2023-03-01T04:00:39.674Z,62.20
2023-03-01T04:01:39.835Z,63.20
2023-03-01T04:03:48.277Z,61.70
2023-03-01T04:04:49.248Z,64.80
2023-03-01T04:05:49.218Z,65.50
2023-03-01T04:06:49.203Z,63.50
2023-03-01T04:07:49.198Z,64.80
2023-03-01T04:08:49.204Z,61.50
2023-03-01T04:09:49.166Z,63.70
2023-03-01T04:10:49.151Z,62.00
2023-03-01T04:11:49.145Z,64.30
2023-03-01T04:12:49.132Z,63.30
2023-03-01T04:13:49.138Z,61.50
2023-03-01T04:14:49.095Z,66.20
2023-03-01T04:15:49.086Z,69.40
2023-03-01T04:16:49.093Z,63.00
2023-03-01T04:17:49.066Z,63.90
2023-03-01T04:18:49.094Z,62.30
2023-03-01T04:19:49.041Z,61.70
2023-03-01T04:20:49.048Z,60.60
2023-03-01T04:21:48.996Z,61.20
2023-03-01T04:22:49.018Z,59.80
2023-03-01T04:23:49.017Z,61.70
2023-03-01T04:24:48.977Z,60.70
2023-03-01T04:25:48.980Z,55.60
2023-03-01T04:26:48.955Z,59.10
2023-03-01T04:27:48.930Z,55.80
2023-03-01T04:28:48.995Z,56.30
2023-03-01T04:29:48.898Z,54.50
2023-03-01T04:30:48.916Z,57.90
2023-03-01T04:31:48.947Z,58.10
2023-03-01T04:32:48.868Z,57.80
2023-03-01T04:33:48.863Z,58.70
2023-03-01T04:34:48.872Z,60.70
2023-03-01T04:35:48.943Z,61.10
2023-03-01T04:36:48.983Z,55.60
2023-03-01T04:37:48.800Z,58.10
2023-03-01T04:38:48.784Z,61.30
2023-03-01T04:39:48.781Z,63.70
2023-03-01T04:40:48.786Z,57.20
2023-03-01T04:41:48.753Z,55.60
2023-03-01T04:42:48.775Z,55.40
2023-03-01T04:43:48.731Z,58.00
2023-03-01T04:44:48.722Z,58.10
2023-03-01T04:45:48.748Z,57.00
2023-03-01T04:46:48.720Z,55.10
2023-03-01T04:47:48.699Z,54.40
2023-03-01T04:48:48.670Z,53.90
2023-03-01T04:49:48.684Z,56.30
2023-03-01T04:50:48.646Z,54.20
2023-03-01T04:51:48.621Z,51.80
2023-03-01T04:52:48.622Z,53.80
2023-03-01T04:53:48.646Z,53.50
2023-03-01T04:54:48.615Z,55.20
2023-03-01T04:55:48.575Z,52.40
2023-03-01T04:56:48.555Z,52.50
2023-03-01T04:57:48.546Z,50.90
2023-03-01T04:58:48.558Z,53.90
2023-03-01T04:59:48.543Z,52.90
2023-03-01T05:00:48.508Z,53.00
2023-03-01T05:01:48.516Z,53.60
2023-03-01T05:02:48.543Z,50.70
2023-03-01T05:03:48.477Z,51.70
2023-03-01T05:04:48.512Z,51.10
2023-03-01T05:05:48.434Z,55.10
2023-03-01T05:06:48.467Z,54.30
2023-03-01T05:07:48.425Z,53.00
2023-03-01T05:08:48.399Z,53.80
2023-03-01T05:09:48.408Z,54.90
2023-03-01T05:10:48.384Z,51.70
2023-03-01T05:11:48.375Z,50.20
2023-03-01T05:12:48.336Z,53.80
2023-03-01T05:13:48.339Z,52.40
2023-03-01T05:14:48.341Z,50.70
2023-03-01T05:15:48.370Z,50.60
2023-03-01T05:16:48.327Z,51.60
2023-03-01T05:17:48.281Z,55.00
2023-03-01T05:18:48.284Z,52.70
2023-03-01T05:19:48.294Z,52.90
2023-03-01T05:20:48.247Z,54.10
2023-03-01T05:21:48.218Z,51.10
2023-03-01T05:22:48.222Z,52.80
2023-03-01T05:23:48.200Z,57.40
2023-03-01T05:24:48.220Z,54.50
2023-03-01T05:25:48.183Z,53.10
2023-03-01T05:26:48.194Z,52.20
2023-03-01T05:27:48.140Z,52.80
2023-03-01T05:28:48.164Z,46.70
2023-03-01T05:29:48.128Z,49.10
2023-03-01T05:30:48.117Z,50.90
2023-03-01T05:31:48.133Z,51.00
2023-03-01T05:32:48.109Z,52.00
2023-03-01T05:33:48.078Z,48.30
2023-03-01T05:34:48.063Z,49.40
2023-03-01T05:35:48.091Z,48.80
2023-03-01T05:36:48.054Z,48.10
2023-03-01T05:37:48.017Z,49.50
2023-03-01T05:38:48.008Z,47.90
2023-03-01T05:39:54.919Z,51.70
2023-03-01T05:40:47.997Z,49.70
2023-03-01T05:41:48.007Z,49.30
2023-03-01T05:42:47.955Z,49.40
2023-03-01T05:43:47.937Z,49.20
2023-03-01T05:44:47.921Z,50.80
2023-03-01T05:45:47.939Z,50.20
2023-03-01T05:46:47.932Z,49.60
2023-03-01T05:47:47.904Z,47.30
2023-03-01T05:48:47.882Z,49.70
2023-03-01T05:49:47.872Z,46.90
2023-03-01T05:50:47.883Z,48.00
2023-03-01T05:51:47.849Z,47.10
2023-03-01T05:52:47.869Z,48.60
2023-03-01T05:53:47.808Z,48.40
2023-03-01T05:54:47.808Z,49.60
2023-03-01T05:55:47.788Z,49.60
2023-03-01T05:56:47.779Z,52.00
2023-03-01T05:57:47.780Z,48.60
2023-03-01T05:58:47.779Z,46.40
2023-03-01T05:59:47.743Z,47.30
2023-03-01T06:00:47.728Z,49.30
2023-03-01T06:01:47.712Z,49.30
2023-03-01T06:02:47.720Z,47.30
2023-03-01T06:03:47.676Z,49.60
2023-03-01T06:04:47.818Z,50.10
2023-03-01T06:05:47.809Z,50.10
2023-03-01T06:06:47.653Z,50.40
2023-03-01T06:07:47.640Z,49.20
2023-03-01T06:08:47.681Z,49.30
2023-03-01T06:09:47.609Z,52.20
2023-03-01T06:10:47.588Z,46.90
2023-03-01T06:11:47.587Z,47.20
2023-03-01T06:12:47.581Z,49.20
2023-03-01T06:13:47.581Z,47.00
2023-03-01T06:14:47.562Z,48.10
2023-03-01T06:15:47.549Z,49.10
2023-03-01T06:16:47.515Z,50.60
2023-03-01T06:17:47.568Z,48.40
2023-03-01T06:18:47.519Z,52.00
2023-03-01T06:19:47.474Z,49.80
2023-03-01T06:20:47.461Z,52.90
2023-03-01T06:21:47.448Z,48.00
2023-03-01T06:22:47.481Z,51.10
2023-03-01T06:23:47.533Z,49.50
2023-03-01T06:24:47.419Z,50.20
2023-03-01T06:25:47.434Z,50.60
2023-03-01T06:26:47.415Z,51.50
2023-03-01T06:27:47.900Z,51.10
2023-03-01T06:28:47.366Z,51.40
2023-03-01T06:29:47.376Z,47.30
2023-03-01T06:30:47.385Z,48.10
2023-03-01T06:31:47.321Z,51.20
2023-03-01T06:32:47.320Z,49.90
2023-03-01T06:33:47.308Z,49.10
2023-03-01T06:34:47.350Z,49.10
2023-03-01T06:35:47.351Z,48.80
2023-03-01T06:36:47.269Z,53.60
2023-03-01T06:37:47.290Z,49.60
2023-03-01T06:38:47.265Z,49.90
2023-03-01T06:39:47.208Z,48.20
2023-03-01T06:40:47.315Z,46.10
2023-03-01T06:41:47.223Z,48.10
2023-03-01T06:42:47.193Z,48.70
2023-03-01T06:43:47.158Z,48.10
2023-03-01T06:44:47.179Z,46.70
2023-03-01T06:45:47.133Z,48.40
2023-03-01T06:46:47.150Z,48.70
2023-03-01T06:47:47.145Z,47.90
2023-03-01T06:48:47.100Z,50.50
2023-03-01T06:49:47.089Z,49.20
2023-03-01T06:50:47.131Z,48.70
2023-03-01T06:51:47.064Z,48.60
2023-03-01T06:53:19.365Z,47.90
2023-03-01T06:54:20.329Z,46.00
2023-03-01T06:55:20.363Z,46.60
2023-03-01T06:56:20.331Z,49.40
2023-03-01T06:57:20.333Z,48.60
2023-03-01T06:58:20.282Z,49.20
2023-03-01T06:59:20.264Z,47.90
2023-03-01T07:00:20.278Z,51.00
2023-03-01T07:01:20.304Z,47.20
2023-03-01T07:02:20.232Z,51.00
2023-03-01T07:03:20.242Z,49.40
2023-03-01T07:04:20.197Z,47.50
2023-03-01T07:05:20.187Z,48.80
2023-03-01T07:06:20.200Z,46.60
2023-03-01T07:07:20.180Z,49.30
2023-03-01T07:08:20.136Z,48.70
2023-03-01T07:09:20.130Z,51.20
2023-03-01T07:10:20.156Z,51.80
2023-03-01T07:11:20.110Z,48.20
2023-03-01T07:12:20.096Z,48.50
2023-03-01T07:13:20.080Z,50.00
2023-03-01T07:14:20.077Z,49.20
2023-03-01T07:15:20.094Z,49.10
2023-03-01T07:16:20.214Z,48.60
2023-03-01T07:17:20.054Z,50.90
2023-03-01T07:18:20.035Z,49.10
2023-03-01T07:19:19.994Z,51.60
2023-03-01T07:20:19.991Z,49.20
2023-03-01T07:21:20.008Z,55.40
2023-03-01T07:22:20.004Z,52.70
2023-03-01T07:23:19.989Z,47.40
2023-03-01T07:24:19.951Z,51.00
2023-03-01T07:25:19.924Z,48.70
2023-03-01T07:26:19.925Z,48.60
2023-03-01T07:27:19.932Z,50.20
2023-03-01T07:28:19.884Z,51.30
2023-03-01T07:29:19.873Z,47.20
2023-03-01T07:30:19.859Z,50.00
2023-03-01T07:31:19.859Z,48.70
2023-03-01T07:32:20.040Z,52.20
2023-03-01T07:33:19.857Z,47.30
2023-03-01T07:34:19.815Z,46.40
2023-03-01T07:35:19.789Z,48.20
2023-03-01T07:36:19.897Z,46.40
2023-03-01T07:37:19.793Z,48.90
2023-03-01T07:38:19.761Z,45.30
2023-03-01T07:39:19.894Z,48.10
2023-03-01T07:40:19.728Z,46.60
2023-03-01T07:41:19.747Z,47.20
2023-03-01T07:42:19.707Z,46.80
2023-03-01T07:43:19.694Z,55.30
2023-03-01T07:44:19.703Z,55.30
2023-03-01T07:45:19.677Z,52.60
2023-03-01T07:46:19.650Z,50.00
2023-03-01T07:47:19.659Z,46.90
2023-03-01T07:48:19.655Z,49.00
2023-03-01T07:49:19.596Z,49.70
2023-03-01T07:50:19.596Z,46.70
2023-03-01T07:51:21.204Z,44.80
2023-03-01T07:52:19.572Z,44.00
2023-03-01T07:53:19.587Z,47.50
2023-03-01T07:54:19.547Z,46.90
2023-03-01T07:55:19.532Z,45.90
2023-03-01T07:56:19.518Z,46.40
2023-03-01T07:57:19.509Z,43.60
2023-03-01T07:58:19.544Z,47.50
2023-03-01T07:59:19.481Z,46.70
2023-03-01T08:00:19.465Z,43.80
2023-03-01T08:01:19.472Z,44.70
2023-03-01T08:02:19.435Z,45.70
2023-03-01T08:03:21.258Z,47.00
2023-03-01T08:04:19.414Z,45.20
2023-03-01T08:05:19.400Z,47.50
2023-03-01T08:06:19.402Z,45.80
2023-03-01T08:07:19.358Z,49.60
2023-03-01T08:08:19.536Z,45.00
2023-03-01T08:09:19.340Z,46.60
2023-03-01T08:10:19.342Z,46.20
2023-03-01T08:11:19.354Z,45.90
2023-03-01T08:12:19.326Z,45.40
2023-03-01T08:13:19.286Z,45.70
2023-03-01T08:14:19.313Z,43.50
2023-03-01T08:15:19.245Z,44.80
2023-03-01T08:16:19.297Z,43.90
2023-03-01T08:17:19.250Z,43.50
2023-03-01T08:18:19.254Z,42.70
2023-03-01T08:19:19.218Z,43.40
2023-03-01T08:20:20.041Z,48.80
2023-03-01T08:21:19.180Z,42.20
2023-03-01T08:22:19.166Z,41.70
2023-03-01T08:23:19.185Z,45.00
2023-03-01T08:24:19.170Z,46.70
2023-03-01T08:25:19.139Z,43.50
2023-03-01T08:26:19.127Z,42.90
2023-03-01T08:27:19.164Z,45.30
2023-03-01T08:28:19.102Z,42.40
2023-03-01T08:29:19.067Z,44.20
2023-03-01T08:30:19.093Z,45.30
2023-03-01T08:31:19.095Z,44.70
2023-03-01T08:32:19.189Z,45.90
2023-03-01T08:33:19.084Z,46.00
2023-03-01T08:34:19.018Z,45.70
2023-03-01T08:35:19.024Z,45.90
2023-03-01T08:36:18.987Z,47.80
2023-03-01T08:37:18.981Z,45.10
2023-03-01T08:38:18.957Z,44.80
2023-03-01T08:39:18.980Z,45.70
2023-03-01T08:40:18.934Z,44.70
2023-03-01T08:41:18.911Z,42.60
2023-03-01T08:42:18.917Z,44.60
2023-03-01T08:43:18.952Z,47.80
2023-03-01T08:44:18.903Z,42.10
2023-03-01T08:45:18.884Z,47.40
2023-03-01T08:46:18.879Z,45.80
2023-03-01T08:47:18.840Z,46.30
2023-03-01T08:48:18.814Z,44.80
2023-03-01T08:49:18.827Z,41.90
2023-03-01T08:50:18.841Z,41.90
2023-03-01T08:51:19.256Z,41.50
2023-03-01T08:52:18.782Z,39.00
2023-03-01T08:53:18.756Z,45.10
2023-03-01T08:54:18.737Z,40.70
2023-03-01T08:55:18.768Z,41.60
2023-03-01T08:56:18.723Z,41.20
2023-03-01T08:57:18.715Z,67.40
2023-03-01T08:58:18.696Z,55.40
2023-03-01T08:59:18.731Z,46.60
2023-03-01T09:00:18.697Z,44.20
2023-03-01T09:01:18.674Z,40.60
2023-03-01T09:02:18.679Z,42.20
2023-03-01T09:03:18.636Z,39.90
2023-03-01T09:04:18.644Z,38.90
2023-03-01T09:05:20.297Z,41.30
2023-03-01T09:06:18.608Z,38.40
2023-03-01T09:07:18.581Z,50.60
2023-03-01T09:08:18.594Z,58.40
2023-03-01T09:09:18.566Z,39.40
2023-03-01T09:10:18.549Z,41.70
2023-03-01T09:11:18.600Z,38.70
2023-03-01T09:12:18.530Z,40.10
2023-03-01T09:13:18.506Z,44.00
2023-03-01T09:14:18.512Z,44.00
2023-03-01T09:15:18.466Z,42.60
2023-03-01T09:16:18.534Z,43.40
2023-03-01T09:17:18.447Z,37.90
2023-03-01T09:18:18.513Z,40.10
2023-03-01T09:19:18.446Z,40.40
2023-03-01T09:20:18.398Z,39.50
2023-03-01T09:21:24.847Z,38.50
2023-03-01T09:22:18.387Z,39.30
2023-03-01T09:23:18.381Z,39.30
2023-03-01T09:24:18.393Z,39.20
2023-03-01T09:25:18.449Z,37.80
2023-03-01T09:26:18.336Z,38.10
2023-03-01T09:27:18.319Z,36.10
2023-03-01T09:28:29.461Z,35.10
2023-03-01T09:29:18.316Z,35.30
2023-03-01T09:30:18.280Z,34.30
2023-03-01T09:31:18.331Z,35.70
2023-03-01T09:32:18.362Z,33.90
2023-03-01T09:33:19.934Z,34.90
2023-03-01T09:34:18.235Z,34.40
2023-03-01T09:35:18.219Z,32.60
2023-03-01T09:36:18.196Z,36.50
2023-03-01T09:37:18.205Z,33.00
2023-03-01T09:38:18.162Z,31.10
2023-03-01T09:39:18.152Z,32.20
2023-03-01T09:40:18.274Z,32.90
2023-03-01T09:41:18.126Z,34.10
2023-03-01T09:42:18.139Z,32.80
2023-03-01T09:43:18.086Z,32.00
2023-03-01T09:44:18.079Z,32.80
2023-03-01T09:45:18.098Z,32.50
2023-03-01T09:46:18.134Z,31.50
2023-03-01T09:47:18.054Z,32.60
2023-03-01T09:48:18.064Z,31.60
2023-03-01T09:49:19.316Z,35.60
2023-03-01T09:50:18.050Z,33.90
2023-03-01T09:51:18.012Z,32.70
2023-03-01T09:52:17.999Z,34.70
2023-03-01T09:53:17.974Z,32.30
2023-03-01T09:54:17.952Z,34.60
2023-03-01T09:55:17.941Z,35.40
2023-03-01T09:56:17.960Z,32.20
2023-03-01T09:57:17.922Z,32.30
2023-03-01T09:58:17.887Z,32.90
2023-03-01T09:59:17.877Z,34.20
2023-03-01T10:00:17.875Z,35.00
2023-03-01T10:01:17.909Z,36.20
2023-03-01T10:02:17.944Z,32.70
2023-03-01T10:03:17.854Z,32.90
2023-03-01T10:04:18.129Z,33.10
2023-03-01T10:05:17.794Z,33.60
2023-03-01T10:06:32.130Z,31.80
2023-03-01T10:07:17.812Z,34.70
2023-03-01T10:08:17.759Z,32.60
2023-03-01T10:09:17.767Z,31.30
2023-03-01T10:10:17.802Z,32.60
2023-03-01T10:11:19.678Z,32.70
2023-03-01T10:12:17.711Z,34.00
2023-03-01T10:13:17.745Z,30.80
2023-03-01T10:14:17.684Z,30.90
2023-03-01T10:15:17.679Z,30.70
2023-03-01T10:16:17.774Z,30.40
2023-03-01T10:17:19.511Z,32.50
2023-03-01T10:18:17.677Z,30.10
2023-03-01T10:19:17.609Z,31.50
2023-03-01T10:20:17.620Z,30.50
2023-03-01T10:21:17.627Z,28.10
2023-03-01T10:22:17.578Z,29.40
2023-03-01T10:23:17.559Z,28.40
2023-03-01T10:24:17.811Z,30.30
2023-03-01T10:25:17.590Z,26.60
2023-03-01T10:26:17.549Z,30.50
2023-03-01T10:27:17.508Z,28.30
2023-03-01T10:28:17.510Z,30.00
2023-03-01T10:29:17.498Z,27.30
2023-03-01T10:30:17.477Z,28.20
2023-03-01T10:31:17.554Z,28.70
2023-03-01T10:32:17.543Z,31.30
2023-03-01T10:33:17.581Z,29.00
2023-03-01T10:34:17.548Z,29.50
2023-03-01T10:35:17.390Z,28.90
2023-03-01T10:36:17.422Z,33.90
2023-03-01T10:37:17.370Z,30.70
2023-03-01T10:38:17.346Z,30.50
2023-03-01T10:39:17.402Z,31.30
2023-03-01T10:40:17.449Z,29.20
2023-03-01T10:41:17.310Z,27.00
2023-03-01T10:42:17.297Z,31.10
2023-03-01T10:43:17.283Z,30.50
2023-03-01T10:44:17.265Z,29.30
2023-03-01T10:45:17.283Z,29.00
2023-03-01T10:46:17.470Z,31.10
2023-03-01T10:47:17.246Z,33.30
2023-03-01T10:48:17.215Z,32.50
2023-03-01T10:49:17.238Z,32.60
2023-03-01T10:50:17.301Z,33.90
2023-03-01T10:51:17.206Z,36.10
2023-03-01T10:52:17.168Z,36.30
2023-03-01T10:53:17.151Z,33.60
2023-03-01T10:54:17.145Z,33.50
2023-03-01T10:55:17.170Z,32.90
2023-03-01T10:56:17.136Z,39.40
2023-03-01T10:57:17.089Z,35.30
2023-03-01T10:58:17.082Z,32.00
2023-03-01T10:59:17.091Z,32.60
2023-03-01T11:00:17.175Z,31.10
2023-03-01T11:01:17.146Z,33.00
2023-03-01T11:02:24.547Z,31.50
2023-03-01T11:03:17.032Z,34.20
2023-03-01T11:04:17.043Z,32.60
2023-03-01T11:05:17.010Z,34.30
2023-03-01T11:06:17.000Z,33.80
2023-03-01T11:07:16.956Z,33.70
2023-03-01T11:08:16.964Z,33.20
2023-03-01T11:09:16.925Z,33.10
2023-03-01T11:10:16.936Z,35.00
2023-03-01T11:11:16.937Z,34.70
2023-03-01T11:12:16.891Z,34.00
2023-03-01T11:13:16.942Z,34.50
2023-03-01T11:14:26.534Z,33.20
2023-03-01T11:15:16.874Z,33.60
2023-03-01T11:16:16.957Z,34.90
2023-03-01T11:17:16.836Z,35.30
2023-03-01T11:18:16.833Z,34.10
2023-03-01T11:19:16.799Z,33.50
2023-03-01T11:20:16.896Z,35.00
2023-03-01T11:21:16.778Z,34.60
2023-03-01T11:22:16.813Z,32.40
2023-03-01T11:23:16.744Z,35.00
2023-03-01T11:24:16.736Z,32.80
2023-03-01T11:25:16.727Z,34.60
2023-03-01T11:26:16.717Z,35.80
2023-03-01T11:27:16.686Z,36.40
2023-03-01T11:28:16.684Z,34.80
2023-03-01T11:29:16.654Z,36.70
2023-03-01T11:30:16.766Z,38.10
2023-03-01T11:31:16.770Z,34.20
2023-03-01T11:32:16.737Z,36.20
2023-03-01T11:33:16.657Z,38.00
2023-03-01T11:34:16.597Z,39.70
2023-03-01T11:35:16.623Z,39.30
2023-03-01T11:36:16.810Z,38.00
2023-03-01T11:37:16.568Z,37.10
2023-03-01T11:38:16.524Z,39.80
2023-03-01T11:39:16.512Z,37.70
2023-03-01T11:40:16.535Z,38.20
2023-03-01T11:41:16.485Z,39.70
2023-03-01T11:42:19.599Z,38.10
2023-03-01T11:43:16.523Z,40.30
2023-03-01T11:44:16.461Z,40.90
2023-03-01T11:45:16.514Z,43.10
2023-03-01T11:46:16.478Z,40.00
2023-03-01T11:47:16.560Z,41.50
2023-03-01T11:48:16.479Z,43.60
2023-03-01T11:49:16.388Z,41.00
2023-03-01T11:50:16.387Z,42.30
2023-03-01T11:51:16.729Z,40.80
2023-03-01T11:52:16.387Z,42.60
2023-03-01T11:53:16.356Z,41.80
2023-03-01T11:54:16.328Z,42.90
2023-03-01T11:55:16.310Z,41.40
2023-03-01T11:56:16.330Z,44.90
2023-03-01T11:57:16.285Z,43.40
2023-03-01T11:58:16.299Z,41.20
2023-03-01T11:59:16.260Z,41.00
2023-03-01T12:00:16.248Z,39.90
2023-03-01T12:01:16.230Z,42.30
2023-03-01T12:02:16.241Z,43.30
2023-03-01T12:03:16.220Z,42.90
2023-03-01T12:04:16.246Z,43.60
2023-03-01T12:05:16.173Z,42.10
2023-03-01T12:06:16.199Z,40.00
2023-03-01T12:07:16.147Z,39.70
2023-03-01T12:08:16.164Z,40.60
2023-03-01T12:09:16.146Z,42.40
2023-03-01T12:10:16.113Z,41.50
2023-03-01T12:11:16.088Z,43.50
2023-03-01T12:12:16.077Z,42.70
2023-03-01T12:13:16.085Z,41.70
2023-03-01T12:14:16.144Z,39.00
2023-03-01T12:15:16.073Z,38.60
2023-03-01T12:16:17.633Z,41.10
2023-03-01T12:17:16.043Z,41.30
2023-03-01T12:18:16.000Z,40.70
2023-03-01T12:19:15.991Z,38.40
2023-03-01T12:20:16.101Z,41.60
2023-03-01T12:21:15.978Z,41.10
2023-03-01T12:22:15.930Z,42.60
2023-03-01T12:23:20.875Z,39.30
2023-03-01T12:24:15.927Z,40.30
2023-03-01T12:25:15.925Z,41.20
2023-03-01T12:26:15.897Z,41.70
2023-03-01T12:27:15.874Z,43.10
2023-03-01T12:28:15.911Z,41.60
2023-03-01T12:29:15.864Z,39.60
2023-03-01T12:30:15.844Z,40.20
2023-03-01T12:31:15.872Z,41.30
2023-03-01T12:32:15.988Z,37.80
2023-03-01T12:33:15.829Z,37.50
2023-03-01T12:34:15.790Z,37.50
2023-03-01T12:35:15.769Z,36.30
2023-03-01T12:36:15.813Z,40.30
2023-03-01T12:37:15.743Z,36.50
2023-03-01T12:38:15.737Z,37.10
2023-03-01T12:39:15.707Z,39.60
2023-03-01T12:40:15.710Z,37.70
2023-03-01T12:41:15.710Z,34.80
2023-03-01T12:42:15.677Z,35.10
2023-03-01T12:43:15.651Z,33.90
2023-03-01T12:44:15.631Z,36.80
2023-03-01T12:45:15.625Z,38.60
2023-03-01T12:46:15.726Z,37.20
2023-03-01T12:47:15.611Z,40.00
2023-03-01T12:48:15.593Z,38.90
2023-03-01T12:49:15.596Z,36.00
2023-03-01T12:50:15.560Z,38.50
2023-03-01T12:51:15.547Z,36.20
2023-03-01T12:52:15.566Z,36.00
2023-03-01T12:53:15.515Z,36.80
2023-03-01T12:54:15.554Z,40.90